Time;durP1;ratioP1;P1;durP2;ratioP2;P2;SDS_P1;SDS_P2;PMS_P1;PMS_P2;Temp;Humidity;BMP_temperature;BMP_pressure;BME280_temperature;BME280_humidity;BME280_pressure;Samples;Min_cycle;Max_cycle;Signal;HPM_P1;HPM_P2
2023/04/09 00:01:51;;;;;;;63.27;37.23;;;;;;;5.37;90.40;101517.00;5059246;28;20208;-84
2023/04/09 00:04:21;;;;;;;60.93;38.13;;;;;;;5.44;90.56;101510.22;5058435;28;20228;-84
2023/04/09 00:06:53;;;;;;;59.87;37.07;;;;;;;5.40;90.20;101507.56;5058590;28;20215;-84
2023/04/09 00:09:24;;;;;;;69.27;38.00;;;;;;;5.27;90.24;101519.38;5058350;28;20229;-84
2023/04/09 00:11:52;;;;;;;70.97;39.77;;;;;;;5.20;90.52;101513.19;5058799;28;20212;-85
2023/04/09 00:14:26;;;;;;;68.67;39.13;;;;;;;5.18;90.31;101507.97;5058216;28;20228;-84
2023/04/09 00:16:55;;;;;;;67.27;37.20;;;;;;;5.09;90.54;101506.91;5058636;28;20203;-84
2023/04/09 00:19:28;;;;;;;61.23;35.83;;;;;;;5.16;89.53;101517.44;5058757;28;20691;-84
2023/04/09 00:21:57;;;;;;;64.00;35.43;;;;;;;5.08;88.71;101537.09;5058890;28;20218;-85
2023/04/09 00:24:34;;;;;;;;;;;;;;;;;;;;;
2023/04/09 00:27:03;;;;;;;61.77;37.40;;;;;;;5.02;88.59;101544.75;5079263;28;20205;-85
2023/04/09 00:29:33;;;;;;;66.23;38.30;;;;;;;4.98;89.03;101541.22;5079479;28;20260;-85
2023/04/09 00:32:03;;;;;;;64.73;35.47;;;;;;;4.94;89.44;101538.53;5079559;28;20191;-84
2023/04/09 00:34:30;;;;;;;62.40;35.77;;;;;;;4.92;89.06;101533.31;5068953;28;20230;-82
2023/04/09 00:36:56;;;;;;;71.40;40.07;;;;;;;4.76;90.04;101528.66;5056954;28;20246;-84
2023/04/09 00:39:23;;;;;;;93.73;42.67;;;;;;;4.82;91.68;101494.28;5056050;28;20204;-84
2023/04/09 00:41:57;;;;;;;82.73;41.03;;;;;;;4.90;92.23;101459.09;5056489;28;20680;-84
2023/04/09 00:44:25;;;;;;;73.70;41.87;;;;;;;4.77;92.33;101455.38;5056277;28;20238;-84
2023/04/09 00:46:54;;;;;;;75.50;40.13;;;;;;;4.61;92.92;101437.78;5055986;28;20269;-84
2023/04/09 00:49:23;;;;;;;73.23;40.07;;;;;;;4.51;93.08;101422.06;5056707;28;20222;-84
2023/04/09 00:51:50;;;;;;;67.70;38.80;;;;;;;4.46;93.68;101412.47;5055289;28;20266;-82
2023/04/09 00:54:16;;;;;;;61.23;36.37;;;;;;;4.45;93.52;101401.25;5056106;28;20291;-84
2023/04/09 00:56:47;;;;;;;60.73;35.27;;;;;;;4.40;92.40;101425.25;5055599;28;20214;-84
2023/04/09 00:59:16;;;;;;;51.23;33.73;;;;;;;4.32;92.00;101444.06;5056367;28;20201;-84
2023/04/09 01:01:53;;;;;;;;;;;;;;;;;;;;;
2023/04/09 01:04:21;;;;;;;48.77;31.90;;;;;;;4.36;89.69;101483.75;5056219;28;20670;-84
2023/04/09 01:06:55;;;;;;;58.83;34.67;;;;;;;4.37;89.49;101508.78;5055232;28;20211;-84
2023/04/09 01:09:30;;;;;;;53.20;33.77;;;;;;;4.37;89.57;101513.94;5056553;28;20227;-84
2023/04/09 01:12:10;;;;;;;58.43;36.27;;;;;;;4.31;90.07;101509.50;5056347;28;20207;-82
2023/04/09 01:14:42;;;;;;;49.63;33.60;;;;;;;4.33;89.93;101507.84;5056325;28;20714;-84
2023/04/09 01:17:16;;;;;;;61.77;36.83;;;;;;;4.25;90.59;101504.19;5055999;28;20215;-84
2023/04/09 01:19:51;;;;;;;75.57;39.47;;;;;;;4.29;90.83;101500.84;5056840;28;20206;-84
2023/04/09 01:22:32;;;;;;;60.63;36.47;;;;;;;4.39;90.39;101501.94;5057346;28;20246;-83
2023/04/09 01:25:07;;;;;;;106.00;40.73;;;;;;;4.48;90.96;101493.50;5056810;28;20281;-85
2023/04/09 01:27:44;;;;;;;73.67;37.20;;;;;;;4.36;92.61;101476.00;5056894;28;20233;-81
2023/04/09 01:30:17;;;;;;;82.03;41.10;;;;;;;4.31;93.19;101451.78;5057016;28;20225;-84
2023/04/09 01:32:44;;;;;;;74.80;38.13;;;;;;;4.16;94.51;101423.84;5056877;28;20215;-81
2023/04/09 01:35:10;;;;;;;83.43;41.33;;;;;;;4.10;95.94;101380.69;5056406;28;20725;-82
2023/04/09 01:37:37;;;;;;;69.57;38.13;;;;;;;3.98;96.74;101363.19;5056097;28;20202;-85
2023/04/09 01:40:10;;;;;;;67.93;38.33;;;;;;;4.02;96.54;101346.03;5056164;28;20610;-84
2023/04/09 01:42:39;;;;;;;115.93;39.50;;;;;;;4.07;96.55;101338.41;5056471;28;20201;-84
2023/04/09 01:45:15;;;;;;;66.77;37.27;;;;;;;4.09;97.12;101334.16;5056435;28;20238;-84
2023/04/09 01:47:45;;;;;;;48.73;32.80;;;;;;;4.14;97.05;101320.50;5055858;28;20211;-85
2023/04/09 01:50:13;;;;;;;65.10;33.33;;;;;;;4.26;95.93;101332.81;5056156;28;20226;-85
2023/04/09 01:52:45;;;;;;;30.30;26.40;;;;;;;4.26;95.33;101350.00;5056265;28;20243;-84
2023/04/09 01:55:17;;;;;;;56.47;28.37;;;;;;;4.28;94.13;101369.00;5055592;28;20230;-84
2023/04/09 01:57:46;;;;;;;51.57;27.03;;;;;;;4.26;94.01;101387.06;5055533;28;20758;-84
2023/04/09 02:00:19;;;;;;;141.83;31.67;;;;;;;4.25;93.86;101394.78;5055933;28;20284;-82
2023/04/09 02:02:53;;;;;;;70.60;29.13;;;;;;;4.26;94.33;101393.94;5054068;28;20206;-85
2023/04/09 02:05:22;;;;;;;37.10;27.03;;;;;;;4.24;94.51;101388.75;5054596;28;20264;-84
2023/04/09 02:07:55;;;;;;;48.07;28.00;;;;;;;4.24;94.81;101393.03;5054504;28;20290;-84
2023/04/09 02:10:26;;;;;;;56.10;28.30;;;;;;;4.13;95.88;101374.72;5054513;28;20280;-85
2023/04/09 02:12:55;;;;;;;36.83;26.07;;;;;;;4.16;95.50;101362.75;5054287;28;20212;-86
2023/04/09 02:15:30;;;;;;;47.77;28.20;;;;;;;4.10;95.94;101360.03;5054653;28;20209;-84
2023/04/09 02:17:58;;;;;;;38.77;28.37;;;;;;;4.14;95.58;101360.94;5054219;28;20693;-84
2023/04/09 02:20:31;;;;;;;43.37;29.17;;;;;;;4.15;95.29;101376.47;5054646;28;20205;-84
2023/04/09 02:22:59;;;;;;;42.40;28.23;;;;;;;4.02;95.18;101384.78;5055149;28;20263;-84
2023/04/09 02:25:30;;;;;;;44.50;29.13;;;;;;;4.05;94.84;101386.59;5054637;28;20199;-85
2023/04/09 02:28:06;;;;;;;;;;;;;;;;;;;;;
2023/04/09 02:30:37;;;;;;;49.70;30.70;;;;;;;3.88;95.63;101374.13;5054586;28;20724;-83
2023/04/09 02:33:05;;;;;;;45.37;29.27;;;;;;;3.84;95.16;101369.72;5054370;28;20217;-83
2023/04/09 02:35:39;;;;;;;43.70;30.13;;;;;;;3.80;94.30;101385.13;5054624;28;20210;-83
2023/04/09 02:38:12;;;;;;;43.13;28.83;;;;;;;3.81;94.16;101395.50;5053969;28;20256;-85
2023/04/09 02:40:39;;;;;;;40.47;29.53;;;;;;;3.76;93.65;101400.53;5054151;28;20650;-85
2023/04/09 02:43:11;;;;;;;36.57;27.87;;;;;;;3.74;93.37;101407.38;5054438;28;20267;-85
2023/04/09 02:45:41;;;;;;;34.47;27.30;;;;;;;3.72;92.58;101415.94;5054502;28;20241;-84
2023/04/09 02:48:12;;;;;;;33.87;27.30;;;;;;;3.62;91.55;101432.88;5054318;28;20215;-85
2023/04/09 02:50:44;;;;;;;33.47;26.43;;;;;;;3.57;91.58;101444.81;5054529;28;20286;-84
2023/04/09 02:53:15;;;;;;;33.27;28.17;;;;;;;3.60;90.97;101452.63;5054882;28;20231;-83
2023/04/09 02:55:46;;;;;;;37.63;27.20;;;;;;;3.48;90.22;101467.81;5055935;28;20625;-84
2023/04/09 02:58:12;;;;;;;33.33;25.97;;;;;;;3.45;89.50;101484.09;5055847;28;20226;-85
2023/04/09 03:00:40;;;;;;;34.33;27.17;;;;;;;3.33;90.67;101487.22;5055434;28;20256;-83
2023/04/09 03:03:06;;;;;;;34.67;26.47;;;;;;;3.30;90.88;101479.38;5054357;28;20225;-84
2023/04/09 03:05:37;;;;;;;36.23;26.20;;;;;;;3.30;91.94;101470.75;5055285;28;20679;-85
2023/04/09 03:08:10;;;;;;;38.57;26.87;;;;;;;3.35;91.45;101464.00;5054802;28;20604;-84
2023/04/09 03:10:38;;;;;;;37.33;27.40;;;;;;;3.29;91.32;101469.00;5055432;28;20292;-84
2023/04/09 03:13:15;;;;;;;33.50;27.67;;;;;;;3.16;91.08;101468.66;5054544;28;20288;-84
2023/04/09 03:15:42;;;;;;;31.47;28.00;;;;;;;3.13;90.72;101470.28;5058006;28;20313;-84
2023/04/09 03:18:14;;;;;;;34.50;26.43;;;;;;;3.23;90.60;101468.84;5058628;28;20212;-84
2023/04/09 03:20:45;;;;;;;35.47;26.93;;;;;;;3.27;90.23;101474.16;5059091;28;20205;-84
2023/04/09 03:23:15;;;;;;;36.90;27.70;;;;;;;3.13;90.53;101480.59;5058587;28;20232;-84
2023/04/09 03:25:42;;;;;;;35.40;26.77;;;;;;;3.09;90.38;101476.19;5057689;28;20206;-83
2023/04/09 03:28:08;;;;;;;37.10;27.93;;;;;;;3.03;91.02;101468.28;5057090;28;20685;-82
2023/04/09 03:30:35;;;;;;;35.17;27.07;;;;;;;3.05;91.01;101464.91;5057561;28;20222;-82
2023/04/09 03:33:04;;;;;;;38.07;26.00;;;;;;;3.08;90.11;101477.91;5057553;28;20210;-83
2023/04/09 03:35:31;;;;;;;31.60;25.93;;;;;;;3.05;89.97;101480.38;5057454;28;20264;-83
2023/04/09 03:37:58;;;;;;;30.93;26.53;;;;;;;3.01;90.41;101488.84;5057141;28;20241;-83
2023/04/09 03:40:24;;;;;;;28.83;25.50;;;;;;;3.04;90.68;101477.78;5058822;28;20256;-84
2023/04/09 03:42:51;;;;;;;35.00;26.37;;;;;;;3.04;90.84;101478.66;5059261;28;20216;-84
2023/04/09 03:45:17;;;;;;;33.70;26.47;;;;;;;3.01;90.73;101488.00;5065013;28;20221;-83
2023/04/09 03:47:44;;;;;;;31.23;25.37;;;;;;;3.06;90.64;101482.13;5067366;28;20229;-85
2023/04/09 03:50:14;;;;;;;34.93;26.63;;;;;;;2.90;92.14;101474.81;5066698;28;20320;-85
2023/04/09 03:52:46;;;;;;;27.90;25.03;;;;;;;2.91;92.35;101456.78;5067240;28;20203;-85
2023/04/09 03:55:19;;;;;;;30.17;23.23;;;;;;;3.05;91.38;101448.56;5065168;28;20232;-85
2023/04/09 03:57:48;;;;;;;34.87;24.13;;;;;;;3.04;91.99;101449.41;5060062;28;20317;-84
2023/04/09 04:00:18;;;;;;;25.50;22.83;;;;;;;2.94;92.96;101433.66;5060774;28;20300;-85
2023/04/09 04:02:45;;;;;;;45.87;25.63;;;;;;;2.95;93.77;101408.75;5060752;28;20202;-85
2023/04/09 04:05:11;;;;;;;34.03;23.87;;;;;;;3.05;94.13;101396.97;5060358;28;20229;-85
2023/04/09 04:07:39;;;;;;;27.60;24.57;;;;;;;3.10;93.49;101396.28;5061406;28;20316;-85
2023/04/09 04:10:07;;;;;;;25.50;22.80;;;;;;;3.04;93.51;101396.09;5061431;28;20211;-85
2023/04/09 04:12:33;;;;;;;27.27;24.30;;;;;;;3.12;93.12;101398.91;5062477;28;20207;-84
2023/04/09 04:15:00;;;;;;;41.57;26.73;;;;;;;3.06;92.88;101398.75;5061301;28;20292;-84
2023/04/09 04:17:29;;;;;;;42.60;27.10;;;;;;;3.03;92.95;101402.09;5071381;28;20209;-84
2023/04/09 04:19:59;;;;;;;39.43;26.50;;;;;;;3.09;94.28;101393.66;5077539;28;20685;-85
2023/04/09 04:22:33;;;;;;;31.57;26.37;;;;;;;3.16;93.59;101393.84;5076584;28;20193;-83
2023/04/09 04:25:03;;;;;;;48.53;26.57;;;;;;;3.19;94.01;101395.63;5076062;28;20252;-83
2023/04/09 04:27:34;;;;;;;39.03;27.40;;;;;;;3.13;94.21;101391.22;5076914;28;20227;-85
2023/04/09 04:30:06;;;;;;;26.97;24.30;;;;;;;3.13;95.00;101378.31;5077665;28;20190;-83
2023/04/09 04:32:38;;;;;;;32.63;25.80;;;;;;;3.17;94.41;101374.06;5077535;28;20199;-83
2023/04/09 04:35:07;;;;;;;40.00;27.47;;;;;;;3.20;95.08;101376.75;5076889;28;20222;-83
2023/04/09 04:37:39;;;;;;;30.03;24.40;;;;;;;3.10;95.56;101377.34;5076407;28;20209;-84
2023/04/09 04:40:10;;;;;;;31.57;24.40;;;;;;;3.17;95.27;101376.66;5060312;28;20211;-84
2023/04/09 04:42:41;;;;;;;40.20;23.37;;;;;;;3.23;94.97;101373.38;5056081;28;20272;-84
2023/04/09 04:45:11;;;;;;;26.90;23.50;;;;;;;3.23;94.99;101381.13;5056120;28;20238;-84
2023/04/09 04:47:42;;;;;;;38.73;22.83;;;;;;;3.22;95.41;101376.81;5056280;28;20265;-83
2023/04/09 04:50:12;;;;;;;54.45;24.55;;;;;;;3.17;95.52;101374.97;5057841;28;20209;-84
2023/04/09 04:52:39;;;;;;;30.70;21.20;;;;;;;3.23;95.17;101370.78;5056195;28;20221;-83
2023/04/09 04:55:07;;;;;;;24.40;22.00;;;;;;;3.23;95.35;101371.69;5056910;28;20234;-84
2023/04/09 04:57:34;;;;;;;36.93;22.93;;;;;;;3.22;95.91;101362.19;5055216;28;20299;-85
2023/04/09 05:00:07;;;;;;;31.27;22.17;;;;;;;3.22;97.02;101354.44;5055419;28;20265;-84
2023/04/09 05:02:33;;;;;;;24.33;22.10;;;;;;;3.17;96.83;101350.84;5055557;28;20202;-85
2023/04/09 05:05:00;;;;;;;34.30;24.53;;;;;;;3.22;96.20;101353.59;5055754;28;20231;-84
2023/04/09 05:07:26;;;;;;;46.33;23.43;;;;;;;3.25;96.30;101349.38;5055925;28;20201;-84
2023/04/09 05:09:54;;;;;;;40.43;23.57;;;;;;;3.26;95.62;101370.88;5054765;28;20197;-84
2023/04/09 05:12:31;;;;;;;36.13;24.87;;;;;;;3.24;96.06;101373.41;5054992;28;20279;-83
2023/04/09 05:14:57;;;;;;;35.80;24.43;;;;;;;3.21;96.53;101370.78;5057221;28;20305;-84
2023/04/09 05:17:28;;;;;;;60.77;23.87;;;;;;;3.20;96.30;101373.31;5057171;28;20285;-86
2023/04/09 05:20:00;;;;;;;53.90;23.43;;;;;;;3.21;95.93;101381.09;5060103;28;20206;-84
2023/04/09 05:22:32;;;;;;;33.73;22.00;;;;;;;3.15;96.57;101370.59;5057350;28;20227;-83
2023/04/09 05:25:03;;;;;;;30.20;23.70;;;;;;;3.12;96.57;101370.53;5056832;28;20264;-84
2023/04/09 05:27:38;;;;;;;22.43;20.23;;;;;;;3.12;97.41;101355.06;5055877;28;20216;-84
2023/04/09 05:30:06;;;;;;;18.83;16.97;;;;;;;3.13;97.25;101356.78;5057837;28;20209;-85
2023/04/09 05:32:37;;;;;;;19.93;17.93;;;;;;;3.16;96.50;101362.91;5056236;28;20810;-85
2023/04/09 05:35:06;;;;;;;28.27;18.63;;;;;;;3.12;96.06;101371.38;5056274;28;20223;-84
2023/04/09 05:37:37;;;;;;;30.13;17.93;;;;;;;3.14;95.78;101380.03;5055457;28;20263;-82
2023/04/09 05:40:05;;;;;;;19.50;17.57;;;;;;;3.14;96.31;101374.03;5055468;28;20252;-85
2023/04/09 05:42:33;;;;;;;19.33;17.53;;;;;;;3.21;96.14;101385.34;5054423;28;20746;-83
2023/04/09 05:44:59;;;;;;;18.73;17.10;;;;;;;3.24;96.06;101378.59;5055601;28;20233;-85
2023/04/09 05:47:31;;;;;;;18.50;16.90;;;;;;;3.29;96.25;101383.84;5054364;28;20213;-85
2023/04/09 05:50:00;;;;;;;19.13;17.43;;;;;;;3.35;96.11;101389.16;5054760;28;20259;-85
2023/04/09 05:52:32;;;;;;;19.87;17.80;;;;;;;3.37;95.51;101396.13;5054450;28;20644;-85
2023/04/09 05:55:04;;;;;;;20.40;18.50;;;;;;;3.37;96.17;101390.97;5054671;28;20221;-85
2023/04/09 05:57:34;;;;;;;19.83;18.07;;;;;;;3.42;95.46;101397.97;5059979;28;20216;-85
2023/04/09 06:00:08;;;;;;;20.03;18.10;;;;;;;3.47;95.10;101404.09;5063345;28;20232;-85
2023/04/09 06:02:37;;;;;;;19.80;17.93;;;;;;;3.49;95.60;101403.31;5063470;28;20218;-85
2023/04/09 06:05:08;;;;;;;19.40;17.70;;;;;;;3.53;95.23;101409.44;5066635;28;20255;-84
2023/04/09 06:07:34;;;;;;;19.83;18.10;;;;;;;3.51;95.55;101403.38;5059367;28;20243;-81
2023/04/09 06:10:01;;;;;;;22.03;19.73;;;;;;;3.56;95.72;101400.03;5066040;28;20209;-83
2023/04/09 06:12:27;;;;;;;21.63;19.37;;;;;;;3.58;96.25;101394.94;5063644;28;20244;-84
2023/04/09 06:14:55;;;;;;;21.77;19.67;;;;;;;3.65;96.53;101385.63;5065286;28;20225;-86
2023/04/09 06:17:21;;;;;;;19.83;18.13;;;;;;;3.66;96.16;101384.78;5065757;28;20735;-86
2023/04/09 06:19:48;;;;;;;21.70;19.40;;;;;;;3.72;96.09;101390.09;5064570;28;20726;-85
2023/04/09 06:22:14;;;;;;;20.67;18.77;;;;;;;3.73;95.51;101403.06;5065506;28;20677;-85
2023/04/09 06:24:40;;;;;;;22.57;20.57;;;;;;;3.77;95.43;101407.47;5066903;28;20216;-85
2023/04/09 06:27:07;;;;;;;21.23;19.30;;;;;;;3.85;95.69;101409.38;5066830;28;20201;-86
2023/04/09 06:29:33;;;;;;;22.70;20.50;;;;;;;3.84;95.68;101403.31;5069578;28;20198;-86
2023/04/09 06:32:01;;;;;;;21.53;19.27;;;;;;;3.91;96.05;101409.50;5069566;28;20262;-82
2023/04/09 06:34:27;;;;;;;24.63;21.60;;;;;;;3.88;96.53;101407.72;5072602;28;20224;-85
2023/04/09 06:36:56;;;;;;;22.77;20.47;;;;;;;3.96;96.22;101398.47;5070525;28;20554;-84
2023/04/09 06:39:23;;;;;;;23.07;20.67;;;;;;;3.98;96.15;101403.63;5068707;28;20688;-86
2023/04/09 06:41:49;;;;;;;23.30;21.07;;;;;;;4.03;95.96;101411.50;5065647;28;20197;-84
2023/04/09 06:44:15;;;;;;;26.90;21.97;;;;;;;4.07;95.38;101411.63;5064165;28;20226;-85
2023/04/09 06:46:42;;;;;;;22.60;20.67;;;;;;;4.09;95.53;101416.81;5068318;28;20611;-85
2023/04/09 06:49:10;;;;;;;22.40;20.33;;;;;;;4.14;95.90;101410.03;5069388;28;20198;-82
2023/04/09 06:51:36;;;;;;;23.17;21.07;;;;;;;4.21;95.96;101405.91;5074867;28;20222;-82
2023/04/09 06:54:02;;;;;;;24.47;20.93;;;;;;;4.25;96.37;101403.41;5072811;28;20217;-88
2023/04/09 06:56:29;;;;;;;27.43;23.03;;;;;;;4.33;96.44;101403.59;5066494;28;20200;-82
2023/04/09 06:58:55;;;;;;;27.10;24.20;;;;;;;4.42;96.51;101401.22;5069483;28;20224;-84
2023/04/09 07:01:21;;;;;;;28.90;23.90;;;;;;;4.40;97.26;101389.97;5068959;28;20198;-84
2023/04/09 07:03:48;;;;;;;28.87;23.43;;;;;;;4.42;97.60;101383.13;5071794;28;20282;-85
2023/04/09 07:06:16;;;;;;;28.97;25.70;;;;;;;4.56;97.21;101388.56;5068288;28;20222;-84
2023/04/09 07:08:42;;;;;;;25.23;22.53;;;;;;;4.67;97.24;101384.47;5067857;28;20611;-83
2023/04/09 07:11:08;;;;;;;29.93;24.80;;;;;;;4.78;97.02;101390.75;5069873;28;20199;-84
2023/04/09 07:13:35;;;;;;;28.57;25.47;;;;;;;4.69;97.68;101379.34;5072794;28;20213;-84
2023/04/09 07:16:01;;;;;;;28.30;24.73;;;;;;;4.77;98.39;101364.84;5071581;28;20211;-82
2023/04/09 07:18:27;;;;;;;29.77;24.07;;;;;;;4.88;98.21;101362.50;5067474;28;20201;-84
2023/04/09 07:20:54;;;;;;;30.17;25.63;;;;;;;5.01;98.20;101372.19;5074016;28;20261;-82
2023/04/09 07:23:22;;;;;;;28.27;24.67;;;;;;;5.08;97.39;101379.25;5076043;28;20297;-83
2023/04/09 07:25:48;;;;;;;32.10;24.57;;;;;;;5.16;96.79;101389.75;5071321;28;20214;-85
2023/04/09 07:28:15;;;;;;;26.70;23.70;;;;;;;5.22;96.46;101399.34;5068701;28;20207;-86
2023/04/09 07:30:41;;;;;;;29.43;24.33;;;;;;;5.32;96.28;101403.84;5074027;28;20507;-84
2023/04/09 07:33:07;;;;;;;30.67;25.27;;;;;;;5.40;95.81;101409.16;5074982;28;20218;-86
2023/04/09 07:35:34;;;;;;;31.80;24.93;;;;;;;5.46;96.06;101423.09;5086774;28;20182;-86
2023/04/09 07:38:00;;;;;;;28.27;25.07;;;;;;;5.56;96.41;101419.81;5085715;28;20259;-84
2023/04/09 07:40:28;;;;;;;31.83;25.37;;;;;;;5.61;95.50;101425.09;5086520;28;20199;-80
2023/04/09 07:42:54;;;;;;;40.17;26.80;;;;;;;5.68;95.44;101431.22;5091950;28;20242;-85
2023/04/09 07:45:21;;;;;;;32.43;27.40;;;;;;;5.74;95.08;101434.78;5096323;28;20275;-82
2023/04/09 07:47:50;;;;;;;35.37;26.67;;;;;;;5.80;95.17;101446.97;5092609;28;20216;-83
2023/04/09 07:50:17;;;;;;;30.07;26.23;;;;;;;5.86;95.18;101447.06;5075048;28;20723;-84
2023/04/09 07:52:43;;;;;;;31.40;26.50;;;;;;;5.91;95.81;101445.44;5071382;28;20277;-81
2023/04/09 07:55:09;;;;;;;39.10;26.13;;;;;;;6.01;95.74;101445.63;5075176;28;20255;-83
2023/04/09 07:57:37;;;;;;;32.20;25.27;;;;;;;6.09;95.63;101439.72;5072644;28;20230;-83
2023/04/09 08:00:13;;;;;;;32.77;26.13;;;;;;;6.20;96.17;101433.81;5077120;28;20201;-83
2023/04/09 08:02:40;;;;;;;30.97;26.77;;;;;;;6.30;95.71;101438.28;5072120;28;20225;-81
2023/04/09 08:05:07;;;;;;;37.43;25.67;;;;;;;6.40;96.26;101429.78;5071330;28;20215;-81
2023/04/09 08:07:33;;;;;;;33.97;26.33;;;;;;;6.49;96.14;101419.53;5068324;28;20249;-82
2023/04/09 08:10:00;;;;;;;35.05;30.85;;;;;;;6.63;96.13;101414.53;5070873;28;20429;-84
2023/04/09 08:12:32;;;;;;;32.23;26.20;;;;;;;6.75;95.62;101419.03;5072631;28;20226;-85
2023/04/09 08:15:02;;;;;;;35.70;25.27;;;;;;;6.84;95.38;101434.72;5066999;28;20220;-84
2023/04/09 08:17:31;;;;;;;35.60;26.33;;;;;;;6.93;94.79;101442.59;5068938;28;20292;-85
2023/04/09 08:20:02;;;;;;;35.42;26.08;;;;;;;7.01;95.89;101444.41;5068489;28;20910;-82
2023/04/09 08:22:30;;;;;;;39.57;26.03;;;;;;;7.11;95.99;101418.56;5066959;28;20207;-83
2023/04/09 08:24:57;;;;;;;36.70;25.43;;;;;;;7.27;97.34;101406.63;5065856;28;20224;-80
2023/04/09 08:27:24;;;;;;;39.97;26.07;;;;;;;7.40;97.04;101407.63;5062179;28;20227;-82
2023/04/09 08:29:50;;;;;;;38.13;25.43;;;;;;;7.54;96.83;101407.75;5065883;28;20196;-83
2023/04/09 08:32:22;;;;;;;41.77;27.17;;;;;;;7.66;97.90;101396.59;5063709;28;20229;-83
2023/04/09 08:34:48;;;;;;;36.03;25.27;;;;;;;7.67;98.23;101385.34;5066330;28;20325;-84
2023/04/09 08:37:15;;;;;;;37.50;24.97;;;;;;;7.68;97.24;101395.75;5066762;28;20201;-81
2023/04/09 08:39:41;;;;;;;34.20;24.60;;;;;;;7.71;97.33;101403.59;5066127;28;20200;-83
2023/04/09 08:42:13;;;;;;;38.07;26.07;;;;;;;7.74;97.09;101408.78;5071132;28;20276;-82
2023/04/09 08:44:39;;;;;;;35.73;25.33;;;;;;;7.80;95.48;101433.09;5069165;28;20262;-81
2023/04/09 08:47:10;;;;;;;35.13;24.97;;;;;;;7.86;95.64;101438.34;5068093;28;20212;-82
2023/04/09 08:49:39;;;;;;;42.43;26.47;;;;;;;7.96;94.28;101458.38;5065222;28;20204;-82
2023/04/09 08:52:06;;;;;;;35.60;25.17;;;;;;;8.01;93.16;101484.38;5066835;28;20220;-82
2023/04/09 08:54:34;;;;;;;36.50;24.93;;;;;;;8.05;92.52;101501.78;5067910;28;20755;-85
2023/04/09 08:57:05;;;;;;;38.57;25.97;;;;;;;8.19;96.73;101465.50;5066776;28;20629;-82
2023/04/09 08:59:35;;;;;;;38.63;26.33;;;;;;;8.26;97.08;101441.25;5067757;28;20197;-82
2023/04/09 09:02:11;;;;;;;32.40;25.20;;;;;;;8.37;97.07;101429.19;5069594;28;20627;-80
2023/04/09 09:04:46;;;;;;;41.03;26.53;;;;;;;8.39;96.54;101421.41;5067362;28;20669;-84
2023/04/09 09:07:13;;;;;;;33.03;23.17;;;;;;;8.39;94.07;101458.69;5066273;28;20661;-84
2023/04/09 09:09:57;;;;;;;38.63;27.37;;;;;;;8.42;93.37;101495.16;5068286;28;20266;-83
2023/04/09 09:12:34;;;;;;;35.90;26.17;;;;;;;8.48;94.13;101469.19;5063128;28;20223;-83
2023/04/09 09:15:01;;;;;;;32.40;25.47;;;;;;;8.53;91.90;101501.31;5063599;28;20223;-83
2023/04/09 09:17:31;;;;;;;34.03;25.27;;;;;;;8.55;91.18;101537.75;5063569;28;20265;-85
2023/04/09 09:20:18;;;;;;;33.50;24.67;;;;;;;8.60;90.07;101561.19;5063227;28;20555;-82
2023/04/09 09:22:52;;;;;;;31.67;24.57;;;;;;;8.70;90.20;101581.22;5065359;28;20199;-84
2023/04/09 09:25:23;;;;;;;34.00;24.43;;;;;;;8.72;89.44;101596.00;5064601;28;20258;-85
2023/04/09 09:27:51;;;;;;;42.10;26.07;;;;;;;8.68;89.84;101609.88;5068191;28;20699;-85
2023/04/09 09:30:27;;;;;;;36.23;26.53;;;;;;;8.68;88.59;101609.88;5074720;28;20204;-83
2023/04/09 09:33:09;;;;;;;36.37;26.17;;;;;;;8.66;88.33;101628.91;5073598;28;20224;-81
2023/04/09 09:35:55;;;;;;;36.67;27.00;;;;;;;8.61;87.68;101647.09;5066854;28;20223;-79
2023/04/09 09:38:24;;;;;;;47.93;29.77;;;;;;;8.49;89.03;101642.66;4370264;28;10000710;-82
2023/04/09 09:40:51;;;;;;;54.77;33.00;;;;;;;8.49;88.55;101636.59;5076294;28;20300;-81
2023/04/09 09:43:17;;;;;;;50.00;34.13;;;;;;;8.48;89.58;101638.34;5076968;28;20266;-81
2023/04/09 09:45:46;;;;;;;51.93;34.70;;;;;;;8.50;88.58;101628.81;5075593;28;20226;-82
2023/04/09 09:48:13;;;;;;;55.47;34.80;;;;;;;8.51;88.51;101632.28;5072946;28;20205;-80
2023/04/09 09:50:41;;;;;;;60.57;36.07;;;;;;;8.48;89.00;101632.22;5072877;28;20247;-80
2023/04/09 09:53:10;;;;;;;57.57;35.13;;;;;;;8.47;89.70;101623.56;5073268;28;20322;-82
2023/04/09 09:55:39;;;;;;;60.10;33.90;;;;;;;8.52;88.85;101632.28;5066170;28;20659;-82
2023/04/09 09:58:12;;;;;;;59.93;35.00;;;;;;;8.55;88.05;101641.84;5055885;28;20216;-82
2023/04/09 10:00:40;;;;;;;64.07;35.80;;;;;;;8.62;87.32;101658.38;5055564;28;20258;-84
2023/04/09 10:03:13;;;;;;;63.07;35.40;;;;;;;8.59;87.54;101660.97;5055899;28;20207;-83
2023/04/09 10:05:42;;;;;;;58.80;33.70;;;;;;;8.63;87.41;101666.22;5055431;28;20209;-83
2023/04/09 10:08:12;;;;;;;53.63;31.87;;;;;;;8.67;86.68;101673.19;5056114;28;20646;-83
2023/04/09 10:10:40;;;;;;;52.10;31.07;;;;;;;8.75;86.70;101665.44;5055594;28;20664;-83
2023/04/09 10:13:09;;;;;;;56.13;31.97;;;;;;;8.79;86.73;101677.63;5056059;28;20228;-83
2023/04/09 10:15:36;;;;;;;56.27;31.73;;;;;;;8.88;85.49;101687.22;5055792;28;20262;-81
2023/04/09 10:18:04;;;;;;;60.60;34.33;;;;;;;8.93;85.46;101698.56;5056330;28;20234;-82
2023/04/09 10:20:41;;;;;;;61.43;33.50;;;;;;;9.02;85.16;101710.78;5055534;28;20255;-83
2023/04/09 10:23:16;;;;;;;56.17;31.40;;;;;;;9.13;84.32;101728.25;5055351;28;20241;-84
2023/04/09 10:25:42;;;;;;;48.23;31.63;;;;;;;9.18;83.72;101738.72;5058769;28;20212;-83
2023/04/09 10:28:15;;;;;;;51.43;31.13;;;;;;;9.31;83.88;101748.34;5058341;28;20201;-80
2023/04/09 10:30:42;;;;;;;49.33;32.47;;;;;;;9.47;82.96;101753.69;5058752;28;20215;-84
2023/04/09 10:33:10;;;;;;;47.27;30.13;;;;;;;9.55;82.64;101770.22;5059200;28;20228;-82
2023/04/09 10:35:37;;;;;;;47.43;30.47;;;;;;;9.68;81.52;101792.06;5059073;28;20709;-83
2023/04/09 10:38:03;;;;;;;51.77;30.07;;;;;;;9.76;80.67;101815.59;5059770;28;20239;-82
2023/04/09 10:40:31;;;;;;;51.43;32.37;;;;;;;9.83;79.85;101830.38;5059120;28;20239;-82
2023/04/09 10:42:58;;;;;;;59.03;36.73;;;;;;;9.86;78.70;101854.75;5059864;28;20205;-82
2023/04/09 10:45:25;;;;;;;60.37;37.00;;;;;;;9.89;78.63;101878.25;5078108;28;20204;-82
2023/04/09 10:47:53;;;;;;;62.17;38.23;;;;;;;10.00;77.56;101883.53;5078655;28;20204;-82
2023/04/09 10:50:21;;;;;;;61.40;37.60;;;;;;;10.11;74.15;101952.34;5077735;28;20215;-82
2023/04/09 10:52:52;;;;;;;53.90;35.17;;;;;;;10.18;73.12;102021.09;5077814;28;20235;-83
2023/04/09 10:55:37;;;;;;;61.83;37.70;;;;;;;10.26;72.49;102058.56;5070543;28;20201;-82
2023/04/09 10:58:06;;;;;;;55.00;35.50;;;;;;;10.31;72.88;102083.00;5058411;28;20208;-81
2023/04/09 11:00:41;;;;;;;54.17;34.53;;;;;;;10.32;71.93;102107.34;5058794;28;20213;-81
2023/04/09 11:03:28;;;;;;;58.07;35.63;;;;;;;10.30;71.97;102128.22;5059110;28;20240;-82
2023/04/09 11:05:59;;;;;;;53.73;36.57;;;;;;;10.24;72.68;102122.03;5058520;28;20210;-83
2023/04/09 11:08:31;;;;;;;56.23;35.77;;;;;;;10.14;72.94;102119.34;5057621;28;20194;-82
2023/04/09 11:11:02;;;;;;;61.13;37.67;;;;;;;10.12;73.09;102117.56;5058099;28;20202;-82
2023/04/09 11:13:32;;;;;;;55.93;36.97;;;;;;;10.30;74.06;102089.06;5057292;28;20264;-83
2023/04/09 11:16:02;;;;;;;54.43;36.67;;;;;;;10.47;73.66;102068.34;5057368;28;20201;-83
2023/04/09 11:18:34;;;;;;;57.40;37.60;;;;;;;10.55;73.33;102071.00;5057840;28;20213;-84
2023/04/09 11:21:03;;;;;;;57.87;36.27;;;;;;;10.57;72.43;102082.34;5057646;28;20771;-82
2023/04/09 11:23:29;;;;;;;56.57;38.03;;;;;;;10.60;72.48;102086.72;5058133;28;20253;-83
2023/04/09 11:25:56;;;;;;;56.70;38.20;;;;;;;10.72;71.72;102089.41;5056361;28;20629;-82
2023/04/09 11:28:26;;;;;;;54.43;37.77;;;;;;;10.79;69.88;102098.16;5056838;28;20677;-83
2023/04/09 11:30:53;;;;;;;57.70;37.07;;;;;;;10.78;69.73;102151.25;5056606;28;20205;-82